Time;durP1;ratioP1;P1;durP2;ratioP2;P2;SDS_P1;SDS_P2;PMS_P1;PMS_P2;Temp;Humidity;BMP_temperature;BMP_pressure;BME280_temperature;BME280_humidity;BME280_pressure;Samples;Min_cycle;Max_cycle;Signal;HPM_P1;HPM_P2
2023/12/09 00:02:00;;;;;;;0.10;0.10;;;;;;;;;;5077325;28;20345;-76
2023/12/09 00:04:26;;;;;;;0.10;0.10;;;;;;;;;;5078981;28;20023;-75
2023/12/09 00:06:52;;;;;;;0.10;0.10;;;;;;;;;;5078772;28;20021;-76
2023/12/09 00:09:19;;;;;;;0.10;0.10;;;;;;;;;;5077160;28;20115;-75
2023/12/09 00:11:58;;;;;;;0.10;0.10;;;;;;;;;;5060264;28;20024;-75
2023/12/09 00:14:49;;;;;;;0.13;0.13;;;;;;;;;;5067935;28;20021;-75
2023/12/09 00:17:17;;;;;;;0.10;0.10;;;;;;;;;;5082508;28;20028;-76
2023/12/09 00:19:44;;;;;;;0.20;0.20;;;;;;;;;;5080815;28;20037;-78
2023/12/09 00:22:10;;;;;;;0.10;0.10;;;;;;;;;;5082952;28;20471;-77
2023/12/09 00:24:37;;;;;;;0.10;0.10;;;;;;;;;;5082079;28;20085;-77
2023/12/09 00:27:05;;;;;;;;;;;;;;;;;;5066217;28;20028;-75
2023/12/09 00:29:35;;;;;;;0.20;0.20;;;;;;;;;;5080596;28;19914;-75
2023/12/09 00:32:13;;;;;;;0.10;0.10;;;;;;;;;;5083718;28;20023;-76
2023/12/09 00:34:56;;;;;;;0.10;0.10;;;;;;;;;;5066032;28;20044;-77
2023/12/09 00:37:26;;;;;;;0.10;0.10;;;;;;;;;;5062753;28;20032;-75
2023/12/09 00:39:55;;;;;;;0.20;0.20;;;;;;;;;;5085074;28;20341;-76
2023/12/09 00:42:25;;;;;;;0.10;0.10;;;;;;;;;;5082035;28;20758;-75
2023/12/09 00:44:52;;;;;;;0.20;0.20;;;;;;;;;;5081393;28;20131;-76
2023/12/09 00:47:18;;;;;;;0.10;0.10;;;;;;;;;;5080779;28;20091;-76
2023/12/09 00:49:48;;;;;;;0.20;0.20;;;;;;;;;;5082263;28;20039;-75
2023/12/09 00:52:24;;;;;;;0.15;0.15;;;;;;;;;;5079785;28;20076;-76
2023/12/09 00:54:50;;;;;;;0.10;0.10;;;;;;;;;;5056237;28;20029;-76
2023/12/09 00:57:16;;;;;;;0.20;0.20;;;;;;;;;;5056257;28;20035;-76
2023/12/09 00:59:43;;;;;;;0.10;0.10;;;;;;;;;;5077977;28;20032;-75
2023/12/09 01:02:09;;;;;;;0.10;0.10;;;;;;;;;;5094180;28;20031;-75
2023/12/09 01:04:35;;;;;;;0.20;0.20;;;;;;;;;;5094078;28;20024;-76
2023/12/09 01:07:01;;;;;;;0.20;0.20;;;;;;;;;;5089644;28;20071;-76
2023/12/09 01:09:28;;;;;;;0.20;0.20;;;;;;;;;;5071484;28;20028;-76
2023/12/09 01:11:54;;;;;;;0.20;0.20;;;;;;;;;;5082114;28;20030;-77
2023/12/09 01:14:20;;;;;;;0.10;0.10;;;;;;;;;;5082887;28;20020;-76
2023/12/09 01:16:47;;;;;;;0.13;0.13;;;;;;;;;;5082837;28;20073;-76
2023/12/09 01:19:13;;;;;;;0.90;0.60;;;;;;;;;;5084178;28;20413;-77
2023/12/09 01:21:40;;;;;;;0.30;0.30;;;;;;;;;;5080514;28;20024;-76
2023/12/09 01:24:06;;;;;;;0.47;0.47;;;;;;;;;;5062067;28;20032;-75
2023/12/09 01:26:36;;;;;;;0.20;0.20;;;;;;;;;;5055570;28;20089;-76
2023/12/09 01:29:03;;;;;;;0.10;0.10;;;;;;;;;;5074523;28;20025;-75
2023/12/09 01:31:33;;;;;;;0.10;0.10;;;;;;;;;;5085018;28;20107;-75
2023/12/09 01:33:59;;;;;;;0.20;0.20;;;;;;;;;;5068927;28;20364;-75
2023/12/09 01:36:25;;;;;;;0.20;0.20;;;;;;;;;;5074454;28;20073;-76
2023/12/09 01:38:52;;;;;;;0.20;0.20;;;;;;;;;;5093745;28;20094;-74
2023/12/09 01:41:21;;;;;;;0.10;0.10;;;;;;;;;;5093703;28;20024;-77
2023/12/09 01:43:48;;;;;;;;;;;;;;;;;;5094093;28;20064;-77
2023/12/09 01:46:21;;;;;;;0.20;0.20;;;;;;;;;;5075266;28;20291;-76
2023/12/09 01:48:50;;;;;;;0.20;0.20;;;;;;;;;;5093658;28;20028;-76
2023/12/09 01:51:16;;;;;;;0.10;0.10;;;;;;;;;;5092085;28;20048;-75
2023/12/09 01:53:43;;;;;;;0.10;0.10;;;;;;;;;;5072468;28;20024;-77
2023/12/09 01:56:13;;;;;;;0.20;0.20;;;;;;;;;;5092060;28;20035;-76
2023/12/09 01:58:40;;;;;;;0.20;0.20;;;;;;;;;;5093135;28;20020;-76
2023/12/09 02:01:06;;;;;;;0.20;0.20;;;;;;;;;;5091916;28;20460;-76
2023/12/09 02:03:33;;;;;;;0.20;0.20;;;;;;;;;;5075379;28;20531;-76
2023/12/09 02:06:00;;;;;;;0.10;0.10;;;;;;;;;;5093319;28;20032;-76
2023/12/09 02:08:26;;;;;;;0.10;0.10;;;;;;;;;;5093338;28;20626;-76
2023/12/09 02:11:11;;;;;;;0.10;0.10;;;;;;;;;;5093459;28;20043;-76
2023/12/09 02:13:46;;;;;;;0.17;0.17;;;;;;;;;;5093275;28;20027;-75
2023/12/09 02:16:20;;;;;;;0.20;0.20;;;;;;;;;;5075893;28;20391;-75
2023/12/09 02:18:48;;;;;;;0.20;0.20;;;;;;;;;;5098271;28;20044;-75
2023/12/09 02:21:14;;;;;;;0.20;0.20;;;;;;;;;;5099099;28;20028;-75
2023/12/09 02:23:41;;;;;;;0.20;0.20;;;;;;;;;;5099802;28;20069;-75
2023/12/09 02:26:20;;;;;;;0.20;0.20;;;;;;;;;;5099981;28;20099;-75
2023/12/09 02:28:51;;;;;;;0.30;0.30;;;;;;;;;;5081284;28;20123;-75
2023/12/09 02:31:27;;;;;;;0.35;0.35;;;;;;;;;;5097727;28;20034;-75
2023/12/09 02:33:56;;;;;;;0.13;0.13;;;;;;;;;;5093974;28;20016;-76
2023/12/09 02:36:27;;;;;;;0.20;0.20;;;;;;;;;;5097540;28;20418;-76
2023/12/09 02:38:55;;;;;;;0.10;0.10;;;;;;;;;;5097523;28;20055;-74
2023/12/09 02:41:22;;;;;;;0.10;0.10;;;;;;;;;;5097708;28;20024;-75
2023/12/09 02:43:48;;;;;;;0.10;0.10;;;;;;;;;;5100407;28;20070;-75
2023/12/09 02:46:19;;;;;;;0.20;0.20;;;;;;;;;;5100187;28;20078;-75
2023/12/09 02:48:53;;;;;;;0.10;0.10;;;;;;;;;;5097634;28;20032;-76
2023/12/09 02:51:19;;;;;;;0.20;0.20;;;;;;;;;;5094917;28;20491;-76
2023/12/09 02:53:49;;;;;;;0.20;0.20;;;;;;;;;;5095245;28;20028;-76
2023/12/09 02:56:19;;;;;;;0.20;0.20;;;;;;;;;;5096731;28;20069;-75
2023/12/09 02:58:45;;;;;;;0.10;0.10;;;;;;;;;;5096518;28;20099;-76
2023/12/09 03:01:12;;;;;;;0.10;0.10;;;;;;;;;;5096550;28;20024;-76
2023/12/09 03:03:38;;;;;;;0.20;0.20;;;;;;;;;;5078864;28;20063;-76
2023/12/09 03:06:04;;;;;;;0.10;0.10;;;;;;;;;;5096500;28;20060;-77
2023/12/09 03:08:30;;;;;;;0.17;0.17;;;;;;;;;;5096408;28;20024;-76
2023/12/09 03:10:56;;;;;;;0.10;0.10;;;;;;;;;;5096484;28;20043;-76
2023/12/09 03:13:23;;;;;;;0.20;0.20;;;;;;;;;;5096297;28;20024;-75
2023/12/09 03:15:49;;;;;;;0.20;0.20;;;;;;;;;;5096227;28;20062;-76
2023/12/09 03:18:15;;;;;;;0.20;0.20;;;;;;;;;;5096321;28;20028;-75
2023/12/09 03:20:42;;;;;;;0.10;0.10;;;;;;;;;;5096201;28;20070;-76
2023/12/09 03:23:08;;;;;;;0.20;0.20;;;;;;;;;;5096434;28;20512;-76
2023/12/09 03:25:35;;;;;;;0.13;0.13;;;;;;;;;;5096083;28;20024;-76
2023/12/09 03:28:01;;;;;;;0.20;0.20;;;;;;;;;;5096068;28;20024;-77
2023/12/09 03:30:27;;;;;;;0.20;0.20;;;;;;;;;;5095478;28;20040;-77
2023/12/09 03:32:54;;;;;;;0.22;0.22;;;;;;;;;;5095937;28;20379;-77
2023/12/09 03:35:20;;;;;;;0.28;0.28;;;;;;;;;;5077919;28;20483;-77
2023/12/09 03:37:46;;;;;;;0.30;0.30;;;;;;;;;;5095878;28;20028;-76
2023/12/09 03:40:15;;;;;;;0.20;0.20;;;;;;;;;;5095659;28;20047;-77
2023/12/09 03:42:42;;;;;;;0.20;0.20;;;;;;;;;;5095672;28;20027;-76
2023/12/09 03:45:08;;;;;;;0.10;0.10;;;;;;;;;;5095740;28;20020;-76
2023/12/09 03:47:35;;;;;;;0.20;0.20;;;;;;;;;;5096378;28;20039;-77
2023/12/09 03:50:22;;;;;;;0.10;0.10;;;;;;;;;;5095608;28;20036;-76
2023/12/09 03:53:00;;;;;;;0.10;0.10;;;;;;;;;;5075755;28;20123;-76
2023/12/09 03:59:00;;;;;;;0.20;0.20;;;;;;;;;;4969766;28;20138;-77
2023/12/09 04:01:33;;;;;;;0.10;0.10;;;;;;;;;;5040870;28;20036;-77
2023/12/09 04:03:59;;;;;;;0.20;0.20;;;;;;;;;;5036203;28;20055;-79
2023/12/09 04:06:25;;;;;;;0.20;0.20;;;;;;;;;;5016776;28;20035;-76
2023/12/09 04:08:52;;;;;;;0.10;0.10;;;;;;;;;;5033729;28;20069;-76
2023/12/09 04:11:18;;;;;;;0.10;0.10;;;;;;;;;;5033219;28;20354;-77
2023/12/09 04:13:45;;;;;;;0.20;0.20;;;;;;;;;;5050673;28;20051;-76
2023/12/09 04:16:11;;;;;;;0.17;0.17;;;;;;;;;;5050811;28;20029;-76
2023/12/09 04:18:38;;;;;;;0.10;0.10;;;;;;;;;;5050810;28;20556;-76
2023/12/09 04:21:07;;;;;;;0.10;0.10;;;;;;;;;;5051480;28;20063;-76
2023/12/09 04:23:34;;;;;;;1.10;1.10;;;;;;;;;;5051397;28;20037;-76
2023/12/09 04:26:00;;;;;;;0.10;0.10;;;;;;;;;;5050487;28;20028;-77
2023/12/09 04:28:27;;;;;;;0.20;0.20;;;;;;;;;;5050595;28;20082;-75
2023/12/09 04:30:57;;;;;;;0.10;0.10;;;;;;;;;;5033079;28;20033;-77
2023/12/09 04:33:24;;;;;;;0.10;0.10;;;;;;;;;;5050877;28;20852;-77
2023/12/09 04:35:51;;;;;;;0.20;0.20;;;;;;;;;;5050304;28;20119;-79
2023/12/09 04:38:20;;;;;;;0.28;0.28;;;;;;;;;;5050488;28;20025;-77
2023/12/09 04:40:46;;;;;;;0.13;0.13;;;;;;;;;;5050379;28;20037;-77
2023/12/09 04:43:12;;;;;;;0.10;0.10;;;;;;;;;;5032863;28;20033;-76
2023/12/09 04:45:39;;;;;;;0.20;0.20;;;;;;;;;;5032874;28;20032;-77
2023/12/09 04:48:05;;;;;;;4.40;3.72;;;;;;;;;;5051600;28;20028;-76
2023/12/09 04:50:35;;;;;;;0.13;0.13;;;;;;;;;;5036067;28;20024;-77
2023/12/09 04:53:11;;;;;;;0.10;0.10;;;;;;;;;;5035560;28;20052;-77
2023/12/09 04:55:51;;;;;;;0.10;0.10;;;;;;;;;;5048949;28;20041;-77
2023/12/09 04:58:27;;;;;;;0.10;0.10;;;;;;;;;;5050199;28;20025;-78
2023/12/09 05:01:23;;;;;;;0.10;0.10;;;;;;;;;;5050696;28;20392;-78
2023/12/09 05:03:56;;;;;;;0.17;0.17;;;;;;;;;;5031863;28;20044;-77
2023/12/09 05:06:22;;;;;;;0.20;0.20;;;;;;;;;;5050277;28;20511;-77
2023/12/09 05:08:50;;;;;;;0.10;0.10;;;;;;;;;;5032384;28;20037;-78
2023/12/09 05:11:16;;;;;;;0.20;0.20;;;;;;;;;;5050606;28;20036;-76
2023/12/09 05:13:42;;;;;;;0.10;0.10;;;;;;;;;;5049816;28;20040;-75
2023/12/09 05:16:11;;;;;;;0.10;0.10;;;;;;;;;;5049969;28;20079;-75
2023/12/09 05:18:38;;;;;;;0.20;0.20;;;;;;;;;;5049780;28;20165;-75
2023/12/09 05:21:05;;;;;;;0.10;0.10;;;;;;;;;;5049842;28;20464;-76
2023/12/09 05:23:35;;;;;;;1.90;1.80;;;;;;;;;;5049807;28;20029;-76
2023/12/09 05:26:02;;;;;;;0.15;0.15;;;;;;;;;;5049637;28;20032;-76
2023/12/09 05:28:30;;;;;;;0.15;0.15;;;;;;;;;;5032047;28;20029;-76
2023/12/09 05:30:56;;;;;;;0.10;0.10;;;;;;;;;;5049882;28;20055;-76
2023/12/09 05:33:23;;;;;;;0.20;0.20;;;;;;;;;;5049787;28;20035;-75
2023/12/09 05:35:49;;;;;;;0.20;0.20;;;;;;;;;;5049243;28;20057;-76
2023/12/09 05:38:15;;;;;;;0.10;0.10;;;;;;;;;;5032117;28;20033;-76
2023/12/09 05:40:41;;;;;;;0.10;0.10;;;;;;;;;;5049502;28;20029;-80
2023/12/09 05:43:07;;;;;;;0.20;0.20;;;;;;;;;;5049631;28;20029;-77
2023/12/09 05:45:33;;;;;;;0.28;0.28;;;;;;;;;;5049434;28;20017;-75
2023/12/09 05:47:59;;;;;;;0.20;0.20;;;;;;;;;;5049103;28;20391;-77
2023/12/09 05:50:25;;;;;;;0.30;0.30;;;;;;;;;;5069315;28;20036;-76
2023/12/09 05:52:51;;;;;;;0.32;0.32;;;;;;;;;;5069045;28;20511;-75
2023/12/09 05:55:18;;;;;;;0.28;0.28;;;;;;;;;;5069196;28;20055;-73
2023/12/09 05:57:50;;;;;;;0.45;0.45;;;;;;;;;;5052111;28;20073;-75
2023/12/09 06:00:16;;;;;;;0.40;0.40;;;;;;;;;;5069849;28;20044;-76
2023/12/09 06:02:42;;;;;;;0.35;0.35;;;;;;;;;;5082599;28;20055;-75
2023/12/09 06:05:09;;;;;;;0.22;0.22;;;;;;;;;;5071232;28;20062;-76
2023/12/09 06:07:35;;;;;;;0.85;0.85;;;;;;;;;;5089228;28;20424;-75
2023/12/09 06:10:03;;;;;;;0.20;0.20;;;;;;;;;;5089076;28;20557;-76
2023/12/09 06:12:30;;;;;;;0.20;0.20;;;;;;;;;;5089322;28;20162;-76
2023/12/09 06:14:56;;;;;;;0.10;0.10;;;;;;;;;;5089083;28;20035;-76
2023/12/09 06:17:22;;;;;;;0.32;0.32;;;;;;;;;;5071412;28;20032;-75
2023/12/09 06:19:48;;;;;;;0.25;0.25;;;;;;;;;;5089026;28;20184;-75
2023/12/09 06:22:15;;;;;;;0.10;0.10;;;;;;;;;;5089317;28;20028;-74
2023/12/09 06:24:43;;;;;;;0.20;0.20;;;;;;;;;;5089418;28;20028;-74
2023/12/09 06:27:10;;;;;;;0.20;0.20;;;;;;;;;;5089391;28;20038;-75
2023/12/09 06:29:37;;;;;;;0.20;0.20;;;;;;;;;;5089019;28;20035;-76
2023/12/09 06:32:03;;;;;;;0.10;0.10;;;;;;;;;;5088881;28;20032;-76
2023/12/09 06:34:29;;;;;;;0.10;0.10;;;;;;;;;;5071231;28;20475;-76
2023/12/09 06:36:56;;;;;;;0.15;0.15;;;;;;;;;;5089047;28;20020;-76
2023/12/09 06:39:22;;;;;;;0.10;0.10;;;;;;;;;;5088654;28;20198;-76
2023/12/09 06:41:48;;;;;;;0.17;0.17;;;;;;;;;;5088993;28;20028;-75
2023/12/09 06:44:18;;;;;;;0.10;0.10;;;;;;;;;;5088961;28;20039;-76
2023/12/09 06:46:53;;;;;;;0.10;0.10;;;;;;;;;;5089364;28;20077;-76
2023/12/09 06:49:19;;;;;;;0.10;0.10;;;;;;;;;;5088587;28;20032;-76
2023/12/09 06:51:45;;;;;;;0.13;0.13;;;;;;;;;;5088674;28;20040;-76
2023/12/09 06:54:14;;;;;;;0.20;0.20;;;;;;;;;;5090937;28;20054;-76
2023/12/09 06:56:40;;;;;;;0.17;0.17;;;;;;;;;;5073440;28;20126;-76
2023/12/09 06:59:07;;;;;;;0.20;0.20;;;;;;;;;;5071623;28;20115;-75
2023/12/09 07:01:34;;;;;;;0.10;0.10;;;;;;;;;;5089167;28;20430;-76
2023/12/09 07:04:00;;;;;;;0.17;0.17;;;;;;;;;;5089163;28;20547;-76
2023/12/09 07:06:27;;;;;;;0.10;0.10;;;;;;;;;;5092895;28;20039;-76
2023/12/09 07:08:53;;;;;;;0.10;0.10;;;;;;;;;;5092611;28;20023;-77
2023/12/09 07:11:21;;;;;;;0.10;0.10;;;;;;;;;;5092474;28;20507;-75
2023/12/09 07:13:47;;;;;;;0.20;0.20;;;;;;;;;;5092007;28;20493;-75
2023/12/09 07:16:13;;;;;;;0.10;0.10;;;;;;;;;;5092929;28;20508;-76
2023/12/09 07:18:43;;;;;;;0.10;0.10;;;;;;;;;;5092029;28;20459;-75
2023/12/09 07:21:09;;;;;;;0.47;0.47;;;;;;;;;;5092061;28;20040;-76
2023/12/09 07:23:36;;;;;;;0.10;0.10;;;;;;;;;;5091806;28;20036;-74
2023/12/09 07:26:02;;;;;;;0.20;0.20;;;;;;;;;;5092087;28;20030;-77
2023/12/09 07:28:31;;;;;;;0.20;0.20;;;;;;;;;;5090531;28;20048;-76
2023/12/09 07:30:57;;;;;;;0.10;0.10;;;;;;;;;;5092530;28;20036;-76
2023/12/09 07:33:23;;;;;;;0.13;0.13;;;;;;;;;;5092079;28;20024;-76
2023/12/09 07:35:49;;;;;;;0.10;0.10;;;;;;;;;;5073686;28;20027;-77
2023/12/09 07:38:16;;;;;;;0.10;0.10;;;;;;;;;;5074138;28;20054;-76
2023/12/09 07:40:52;;;;;;;0.10;0.10;;;;;;;;;;5091999;28;20047;-75
2023/12/09 07:43:27;;;;;;;0.65;0.65;;;;;;;;;;5092033;28;20077;-75
2023/12/09 07:45:53;;;;;;;2.75;2.65;;;;;;;;;;5091919;28;20032;-78
2023/12/09 07:48:19;;;;;;;0.10;0.10;;;;;;;;;;5091735;28;20399;-76
2023/12/09 07:50:45;;;;;;;0.15;0.15;;;;;;;;;;5091264;28;20077;-77
2023/12/09 07:53:11;;;;;;;0.10;0.10;;;;;;;;;;5091704;28;20383;-80
2023/12/09 07:55:37;;;;;;;0.17;0.17;;;;;;;;;;5092417;28;20050;-75
2023/12/09 07:58:03;;;;;;;0.10;0.10;;;;;;;;;;5091441;28;20020;-76
2023/12/09 08:00:35;;;;;;;0.10;0.10;;;;;;;;;;5090377;28;20040;-77
2023/12/09 08:06:13;;;;;;;0.10;0.10;;;;;;;;;;5048838;28;20175;-77
2023/12/09 08:08:50;;;;;;;0.50;0.50;;;;;;;;;;5049107;28;20083;-75
2023/12/09 08:11:27;;;;;;;1.00;1.00;;;;;;;;;;5079376;28;20073;-78
2023/12/09 08:14:18;;;;;;;0.10;0.10;;;;;;;;;;5106941;28;20086;-79
2023/12/09 08:16:52;;;;;;;0.10;0.10;;;;;;;;;;5055872;28;20032;-80
2023/12/09 08:19:33;;;;;;;0.10;0.10;;;;;;;;;;5075372;28;20040;-80
2023/12/09 08:22:00;;;;;;;0.20;0.20;;;;;;;;;;5088991;28;20039;-78
2023/12/09 08:24:27;;;;;;;0.10;0.10;;;;;;;;;;5090982;28;20032;-80
2023/12/09 08:27:01;;;;;;;0.10;0.10;;;;;;;;;;5090415;28;20028;-79
2023/12/09 08:29:28;;;;;;;0.10;0.10;;;;;;;;;;5091122;28;20035;-75
2023/12/09 08:31:54;;;;;;;0.10;0.10;;;;;;;;;;5090349;28;20020;-77
2023/12/09 08:34:20;;;;;;;0.10;0.10;;;;;;;;;;5089296;28;20394;-77
2023/12/09 08:36:46;;;;;;;0.20;0.20;;;;;;;;;;5091051;28;20114;-76
2023/12/09 08:39:14;;;;;;;0.20;0.20;;;;;;;;;;5091763;28;20040;-76
2023/12/09 08:41:40;;;;;;;0.10;0.10;;;;;;;;;;5090934;28;20020;-74
2023/12/09 08:44:07;;;;;;;0.13;0.13;;;;;;;;;;5090483;28;20062;-77
2023/12/09 08:46:36;;;;;;;0.10;0.10;;;;;;;;;;5091181;28;20028;-75
2023/12/09 08:49:03;;;;;;;0.20;0.20;;;;;;;;;;5090866;28;20380;-74
2023/12/09 08:51:29;;;;;;;0.73;0.73;;;;;;;;;;5086016;28;20051;-75
2023/12/09 08:53:56;;;;;;;1.60;1.35;;;;;;;;;;5089830;28;20060;-76
2023/12/09 08:56:22;;;;;;;0.10;0.10;;;;;;;;;;5086090;28;20019;-76
2023/12/09 08:58:47;;;;;;;1.13;1.02;;;;;;;;;;5092165;28;20020;-75
2023/12/09 09:01:13;;;;;;;0.20;0.20;;;;;;;;;;5090631;28;20611;-75
2023/12/09 09:03:51;;;;;;;0.22;0.22;;;;;;;;;;5089314;28;20051;-76
2023/12/09 09:11:20;;;;;;;0.30;0.30;;;;;;;;;;5026581;28;20044;-75
2023/12/09 09:14:46;;;;;;;1.85;1.05;;;;;;;;;;4967923;28;20483;-74
2023/12/09 09:29:01;;;;;;;0.47;0.47;;;;;;;;;;4950958;28;20078;-75
2023/12/09 09:31:46;;;;;;;0.20;0.20;;;;;;;;;;4874034;28;20588;-75
2023/12/09 09:34:46;;;;;;;7.72;2.08;;;;;;;;;;4956512;28;20074;-74
2023/12/09 09:44:55;;;;;;;0.10;0.10;;;;;;;;;;4961432;28;20129;-74
2023/12/09 09:51:36;;;;;;;0.45;0.45;;;;;;;;;;4877102;29;20131;-75
2023/12/09 09:58:19;;;;;;;0.63;0.63;;;;;;;;;;4908095;29;20051;-74
2023/12/09 10:12:00;;;;;;;0.50;0.50;;;;;;;;;;4910508;29;20120;-74
2023/12/09 10:18:52;;;;;;;0.85;0.73;;;;;;;;;;4916995;29;20039;-74
2023/12/09 10:25:52;;;;;;;0.20;0.20;;;;;;;;;;4933827;28;20034;-74
2023/12/09 10:32:07;;;;;;;0.20;0.20;;;;;;;;;;4972274;28;20031;-75
2023/12/09 10:38:36;;;;;;;0.47;0.38;;;;;;;;;;5052981;28;20392;-74
2023/12/09 10:48:38;;;;;;;1.25;0.90;;;;;;;;;;4997843;28;20037;-73
2023/12/09 10:52:13;;;;;;;0.20;0.20;;;;;;;;;;5063937;28;20060;-74
2023/12/09 10:59:13;;;;;;;0.30;0.30;;;;;;;;;;4977424;28;20411;-73
2023/12/09 11:13:05;;;;;;;2.90;1.48;;;;;;;;;;5044786;28;19915;-74
2023/12/09 11:26:59;;;;;;;;;;;;;;;;;;;;;
2023/12/09 11:29:57;;;;;;;0.57;0.43;;;;;;;;;;4916027;29;20351;-75
2023/12/09 11:32:54;;;;;;;0.35;0.35;;;;;;;;;;4842609;29;20161;-74
2023/12/09 11:36:07;;;;;;;0.30;0.30;;;;;;;;;;4842970;29;20041;-74
2023/12/09 11:46:16;;;;;;;0.30;0.30;;;;;;;;;;4879777;29;20088;-76
2023/12/09 11:56:02;;;;;;;0.28;0.22;;;;;;;;;;4989835;28;20043;-75
2023/12/09 12:13:16;;;;;;;1.30;1.17;;;;;;;;;;4916836;29;20090;-74
2023/12/09 12:23:22;;;;;;;;;;;;;;;;;;;;;
2023/12/09 12:33:39;;;;;;;0.20;0.20;;;;;;;;;;4931529;29;20048;-74
2023/12/09 12:40:27;;;;;;;0.30;0.30;;;;;;;;;;4973498;28;20177;-74
2023/12/09 12:43:33;;;;;;;0.20;0.20;;;;;;;;;;4973839;28;20109;-73
2023/12/09 12:54:23;;;;;;;5.60;4.68;;;;;;;;;;4957919;28;20069;-73
2023/12/09 12:57:14;;;;;;;0.30;0.30;;;;;;;;;;4888332;29;20117;-75
2023/12/09 13:14:53;;;;;;;0.30;0.30;;;;;;;;;;4896831;29;20317;-75
2023/12/09 13:35:37;;;;;;;0.30;0.30;;;;;;;;;;4910735;29;20051;-74
2023/12/09 13:39:11;;;;;;;0.20;0.20;;;;;;;;;;4917669;29;20042;-75
2023/12/09 13:45:52;;;;;;;0.50;0.40;;;;;;;;;;4953546;29;20586;-74
2023/12/09 14:02:48;;;;;;;1.05;0.68;;;;;;;;;;4899175;29;20048;-74
2023/12/09 14:06:23;;;;;;;0.40;0.40;;;;;;;;;;4847174;28;20348;-74
2023/12/09 14:09:25;;;;;;;0.50;0.40;;;;;;;;;;5021828;28;20048;-75
2023/12/09 14:12:31;;;;;;;0.40;0.40;;;;;;;;;;5028812;28;20084;-74
2023/12/09 14:15:13;;;;;;;0.22;0.22;;;;;;;;;;5024522;28;20030;-74
2023/12/09 14:21:20;;;;;;;0.30;0.30;;;;;;;;;;5048435;28;20059;-75
2023/12/09 14:24:13;;;;;;;0.22;0.22;;;;;;;;;;5091649;28;20059;-75
2023/12/09 14:52:11;;;;;;;0.20;0.20;;;;;;;;;;4937415;29;20495;-74
2023/12/09 14:55:41;;;;;;;0.20;0.20;;;;;;;;;;4937128;29;20122;-74
2023/12/09 14:58:35;;;;;;;0.25;0.25;;;;;;;;;;4977061;28;20069;-75
2023/12/09 15:22:03;;;;;;;0.30;0.30;;;;;;;;;;4970297;28;20050;-74
2023/12/09 15:28:42;;;;;;;0.20;0.20;;;;;;;;;;4918473;29;20043;-75
2023/12/09 15:35:19;;;;;;;0.20;0.20;;;;;;;;;;4894689;29;20032;-74
2023/12/09 15:52:06;;;;;;;0.10;0.10;;;;;;;;;;5005273;28;20395;-74
2023/12/09 15:55:35;;;;;;;0.20;0.20;;;;;;;;;;5014898;28;20053;-74
2023/12/09 16:01:58;;;;;;;0.13;0.13;;;;;;;;;;5067928;28;20135;-74
2023/12/09 16:05:12;;;;;;;0.10;0.10;;;;;;;;;;5068983;28;20028;-74
2023/12/09 16:19:02;;;;;;;0.17;0.17;;;;;;;;;;5026656;28;20056;-73
2023/12/09 16:25:34;;;;;;;0.10;0.10;;;;;;;;;;4986825;28;20031;-74
2023/12/09 16:28:51;;;;;;;0.20;0.20;;;;;;;;;;5016111;28;20040;-75
2023/12/09 16:46:39;;;;;;;0.10;0.10;;;;;;;;;;4985877;28;20137;-74
2023/12/09 17:10:09;;;;;;;0.10;0.10;;;;;;;;;;4941017;28;20065;-74
2023/12/09 17:12:39;;;;;;;0.50;0.50;;;;;;;;;;4947280;29;20058;-74
2023/12/09 17:15:07;;;;;;;;;;;;;;;;;;4947353;29;20043;-74
2023/12/09 17:17:33;;;;;;;0.20;0.20;;;;;;;;;;4946282;29;20569;-74
2023/12/09 17:20:00;;;;;;;0.10;0.10;;;;;;;;;;4962615;28;20435;-74
2023/12/09 17:25:22;;;;;;;0.10;0.10;;;;;;;;;;5013734;28;20041;-74
2023/12/09 17:27:50;;;;;;;0.63;0.63;;;;;;;;;;5024553;28;20461;-74
2023/12/09 17:30:16;;;;;;;0.40;0.40;;;;;;;;;;5042569;28;20115;-75
2023/12/09 17:32:42;;;;;;;0.13;0.13;;;;;;;;;;5065417;28;20518;-74
2023/12/09 17:35:09;;;;;;;0.30;0.30;;;;;;;;;;5065725;28;20028;-73
2023/12/09 17:37:35;;;;;;;0.10;0.10;;;;;;;;;;5066763;28;20021;-74
2023/12/09 17:40:05;;;;;;;0.45;0.45;;;;;;;;;;5066879;28;20055;-73
2023/12/09 17:42:32;;;;;;;0.85;0.85;;;;;;;;;;5082277;28;20024;-73
2023/12/09 17:44:59;;;;;;;0.20;0.20;;;;;;;;;;5069718;28;20375;-74
2023/12/09 17:47:26;;;;;;;0.68;0.68;;;;;;;;;;5068921;28;20032;-74
2023/12/09 17:49:53;;;;;;;0.20;0.20;;;;;;;;;;5086983;28;20020;-74
2023/12/09 17:52:21;;;;;;;3.22;3.03;;;;;;;;;;5086665;28;20363;-75
2023/12/09 17:54:48;;;;;;;0.52;0.52;;;;;;;;;;5085629;28;20016;-73
2023/12/09 17:57:15;;;;;;;0.10;0.10;;;;;;;;;;5068379;28;20050;-75
2023/12/09 17:59:42;;;;;;;0.10;0.10;;;;;;;;;;5086116;28;20593;-74
2023/12/09 18:02:09;;;;;;;1.05;1.05;;;;;;;;;;5086841;28;20395;-75
2023/12/09 18:04:35;;;;;;;0.20;0.20;;;;;;;;;;5087658;28;20012;-75
2023/12/09 18:07:02;;;;;;;0.40;0.40;;;;;;;;;;5088152;28;20015;-75
2023/12/09 18:09:29;;;;;;;0.10;0.10;;;;;;;;;;5068863;28;20046;-74
2023/12/09 18:11:57;;;;;;;0.13;0.13;;;;;;;;;;5068142;28;20487;-74
2023/12/09 18:14:24;;;;;;;0.10;0.10;;;;;;;;;;5086276;28;20099;-75
2023/12/09 18:16:50;;;;;;;0.10;0.10;;;;;;;;;;5086833;28;20423;-75
2023/12/09 18:19:19;;;;;;;0.65;0.65;;;;;;;;;;5068732;28;20024;-75
2023/12/09 18:21:44;;;;;;;0.10;0.10;;;;;;;;;;5087092;28;20081;-75
2023/12/09 18:24:14;;;;;;;0.10;0.10;;;;;;;;;;5069610;28;20351;-75
2023/12/09 18:26:42;;;;;;;0.10;0.10;;;;;;;;;;5087748;28;20021;-75
2023/12/09 18:29:09;;;;;;;0.20;0.20;;;;;;;;;;5069257;28;20467;-75
2023/12/09 18:31:35;;;;;;;0.10;0.10;;;;;;;;;;5087427;28;20028;-75
2023/12/09 18:34:02;;;;;;;0.38;0.38;;;;;;;;;;5086998;28;20043;-75
2023/12/09 18:36:30;;;;;;;0.10;0.10;;;;;;;;;;5087130;28;20032;-75
2023/12/09 18:38:56;;;;;;;0.10;0.10;;;;;;;;;;5087893;28;20008;-74
2023/12/09 18:41:23;;;;;;;0.10;0.10;;;;;;;;;;5087335;28;20463;-74
2023/12/09 18:43:49;;;;;;;1.67;1.58;;;;;;;;;;5068798;28;20463;-74
2023/12/09 18:46:16;;;;;;;0.10;0.10;;;;;;;;;;5086518;28;20540;-74
2023/12/09 18:48:42;;;;;;;0.13;0.13;;;;;;;;;;5086582;28;20016;-74
2023/12/09 18:51:08;;;;;;;0.10;0.10;;;;;;;;;;5085730;28;20042;-75
2023/12/09 18:53:41;;;;;;;0.13;0.13;;;;;;;;;;5085888;28;20082;-74
2023/12/09 18:56:08;;;;;;;0.20;0.20;;;;;;;;;;5086464;28;20027;-75
2023/12/09 18:58:35;;;;;;;0.20;0.20;;;;;;;;;;5086191;28;20043;-74
2023/12/09 19:01:02;;;;;;;0.17;0.17;;;;;;;;;;5088708;28;20553;-75
2023/12/09 19:03:31;;;;;;;1.10;1.10;;;;;;;;;;5085052;28;20016;-74
2023/12/09 19:05:58;;;;;;;;;;;;;;;;;;5069906;28;20482;-74
2023/12/09 19:08:24;;;;;;;0.13;0.13;;;;;;;;;;5063674;28;20375;-75
2023/12/09 19:10:51;;;;;;;1.33;0.93;;;;;;;;;;5063321;28;20102;-74
2023/12/09 19:13:18;;;;;;;1.02;0.77;;;;;;;;;;5073125;28;20028;-74
2023/12/09 19:15:48;;;;;;;0.93;0.93;;;;;;;;;;5051656;28;20028;-74
2023/12/09 19:18:15;;;;;;;1.33;1.23;;;;;;;;;;5072418;28;20043;-74
2023/12/09 19:20:43;;;;;;;0.20;0.20;;;;;;;;;;5072001;28;20029;-74
2023/12/09 19:23:09;;;;;;;0.30;0.30;;;;;;;;;;5072513;28;20020;-74
2023/12/09 19:25:35;;;;;;;8.70;7.97;;;;;;;;;;5072246;28;20032;-74
2023/12/09 19:28:03;;;;;;;8.15;4.13;;;;;;;;;;5054195;28;20031;-74
2023/12/09 19:30:31;;;;;;;0.43;0.40;;;;;;;;;;5054615;28;20024;-74
2023/12/09 19:33:04;;;;;;;1.05;1.05;;;;;;;;;;5072176;28;20025;-73
2023/12/09 19:35:30;;;;;;;0.10;0.10;;;;;;;;;;5072270;28;20024;-75
2023/12/09 19:37:56;;;;;;;0.20;0.20;;;;;;;;;;5071708;28;20120;-74
2023/12/09 19:40:23;;;;;;;0.10;0.10;;;;;;;;;;5072204;28;20032;-74
2023/12/09 19:42:56;;;;;;;0.20;0.20;;;;;;;;;;5072191;28;20112;-74
2023/12/09 19:45:26;;;;;;;0.10;0.10;;;;;;;;;;5071730;28;20025;-73
2023/12/09 19:47:56;;;;;;;0.10;0.10;;;;;;;;;;5053644;28;20127;-75
2023/12/09 19:50:23;;;;;;;0.20;0.20;;;;;;;;;;5079288;28;20602;-73
2023/12/09 19:52:49;;;;;;;5.80;5.30;;;;;;;;;;5091908;28;20487;-74
2023/12/09 19:55:15;;;;;;;0.20;0.20;;;;;;;;;;5092145;28;20673;-74
2023/12/09 19:57:42;;;;;;;0.10;0.10;;;;;;;;;;5091711;28;20095;-74
2023/12/09 20:00:09;;;;;;;1.00;1.00;;;;;;;;;;5091519;28;20035;-75
2023/12/09 20:02:36;;;;;;;0.10;0.10;;;;;;;;;;5091614;28;20030;-73
2023/12/09 20:05:04;;;;;;;0.32;0.32;;;;;;;;;;5091552;28;20023;-74
2023/12/09 20:07:31;;;;;;;0.10;0.10;;;;;;;;;;5091662;28;20024;-74
2023/12/09 20:09:57;;;;;;;3.60;3.42;;;;;;;;;;5091308;28;20016;-74
2023/12/09 20:12:23;;;;;;;0.40;0.40;;;;;;;;;;5088808;28;20055;-75
2023/12/09 20:14:49;;;;;;;0.90;0.90;;;;;;;;;;5089082;28;20119;-74
2023/12/09 20:17:16;;;;;;;0.75;0.75;;;;;;;;;;5090561;28;20071;-74
2023/12/09 20:19:42;;;;;;;0.20;0.20;;;;;;;;;;5086538;28;20043;-74
2023/12/09 20:22:11;;;;;;;0.20;0.20;;;;;;;;;;5071149;28;20477;-75
2023/12/09 20:24:38;;;;;;;0.10;0.10;;;;;;;;;;5071460;28;20016;-74
2023/12/09 20:27:04;;;;;;;0.10;0.10;;;;;;;;;;5070662;28;20039;-73
2023/12/09 20:29:31;;;;;;;0.22;0.22;;;;;;;;;;5070930;28;20085;-74
2023/12/09 20:32:00;;;;;;;0.20;0.20;;;;;;;;;;5070623;28;20024;-74
2023/12/09 20:34:31;;;;;;;0.10;0.10;;;;;;;;;;5052856;28;20029;-74
2023/12/09 20:36:59;;;;;;;0.10;0.10;;;;;;;;;;5070833;28;20028;-74
2023/12/09 20:39:26;;;;;;;0.10;0.10;;;;;;;;;;5035929;28;20044;-75
2023/12/09 20:41:53;;;;;;;0.20;0.20;;;;;;;;;;5052600;28;20518;-74
2023/12/09 20:44:20;;;;;;;0.20;0.20;;;;;;;;;;5070718;28;20100;-76
2023/12/09 20:46:47;;;;;;;0.35;0.35;;;;;;;;;;5070250;28;20028;-74
2023/12/09 20:49:16;;;;;;;2.83;2.72;;;;;;;;;;5073172;28;20021;-74